createdAt,value
2019-02-12T00:01:06.083Z,94294.62
2019-02-12T00:03:37.784Z,94316.80
2019-02-12T00:06:09.345Z,94305.78
2019-02-12T00:08:41.152Z,94302.03
2019-02-12T00:11:12.851Z,94306.13
2019-02-12T00:13:44.497Z,94328.72
2019-02-12T00:16:16.076Z,94339.15
2019-02-12T00:18:47.542Z,94338.91
2019-02-12T00:21:19.196Z,94344.17
2019-02-12T00:23:50.998Z,94353.52
2019-02-12T00:26:22.522Z,94351.98
2019-02-12T00:28:55.686Z,94347.75
2019-02-12T00:31:27.360Z,94340.80
2019-02-12T00:33:59.073Z,94340.08
2019-02-12T00:36:30.382Z,94329.33
2019-02-12T00:39:01.967Z,94331.14
2019-02-12T00:41:35.256Z,94329.73
2019-02-12T00:44:06.920Z,94329.23
2019-02-12T00:46:38.500Z,94332.14
2019-02-12T00:49:10.013Z,94346.59
2019-02-12T00:51:41.717Z,94351.41
2019-02-12T00:54:13.335Z,94333.95
2019-02-12T00:56:45.151Z,94333.11
2019-02-12T00:59:16.809Z,94330.44
2019-02-12T01:01:48.173Z,94323.55
2019-02-12T01:04:19.479Z,94311.14
2019-02-12T01:06:51.011Z,94334.33
2019-02-12T01:09:22.714Z,94337.61
2019-02-12T01:11:53.984Z,94330.86
2019-02-12T01:14:25.626Z,94327.78
2019-02-12T01:16:57.177Z,94315.92
2019-02-12T01:19:28.723Z,94311.62
2019-02-12T01:22:00.170Z,94303.86
2019-02-12T01:24:31.959Z,94297.66
2019-02-12T01:27:04.768Z,94300.27
2019-02-12T01:29:37.311Z,94298.41
2019-02-12T01:32:09.118Z,94284.54
2019-02-12T01:34:40.815Z,94272.80
2019-02-12T01:37:12.446Z,94267.38
2019-02-12T01:39:45.107Z,94273.67
2019-02-12T01:42:16.568Z,94296.23
2019-02-12T01:44:48.306Z,94314.81
2019-02-12T01:47:19.941Z,94321.80
2019-02-12T01:49:51.760Z,94331.52
2019-02-12T01:52:23.153Z,94338.06
2019-02-12T01:54:54.594Z,94332.58
2019-02-12T01:57:26.257Z,94335.52
2019-02-12T01:59:59.095Z,94342.88
2019-02-12T02:02:30.874Z,94344.81
2019-02-12T02:05:02.655Z,94336.64
2019-02-12T02:07:34.277Z,94341.94
2019-02-12T02:10:06.971Z,94339.70
2019-02-12T02:12:38.667Z,94331.87
2019-02-12T02:15:11.428Z,94331.52
2019-02-12T02:17:42.858Z,94327.66
2019-02-12T02:20:15.025Z,94325.29
2019-02-12T02:22:46.631Z,94324.68
2019-02-12T02:25:18.439Z,94322.20
2019-02-12T02:27:50.056Z,94327.70
2019-02-12T02:30:21.736Z,94325.89
2019-02-12T02:32:53.411Z,94325.49
2019-02-12T02:35:25.947Z,94337.42
2019-02-12T02:37:57.474Z,94334.52
2019-02-12T02:40:29.159Z,94336.06
2019-02-12T02:43:00.383Z,94339.56
2019-02-12T02:45:31.739Z,94334.59
2019-02-12T02:48:03.514Z,94337.20
2019-02-12T02:50:35.274Z,94336.66
2019-02-12T02:53:06.813Z,94323.25
2019-02-12T02:55:38.385Z,94327.50
2019-02-12T02:58:09.601Z,94331.98
2019-02-12T03:00:41.278Z,94322.20
2019-02-12T03:03:13.068Z,94326.41
2019-02-12T03:05:44.556Z,94330.65
2019-02-12T03:08:16.302Z,94322.06
2019-02-12T03:10:47.885Z,94339.02
2019-02-12T03:13:19.633Z,94334.03
2019-02-12T03:15:51.396Z,94334.03
2019-02-12T03:18:22.785Z,94342.68
2019-02-12T03:20:54.264Z,94345.77
2019-02-12T03:23:25.670Z,94346.27
2019-02-12T03:25:56.980Z,94353.94
2019-02-12T03:28:28.244Z,94356.34
2019-02-12T03:30:59.464Z,94354.20
2019-02-12T03:33:30.918Z,94355.22
2019-02-12T03:36:02.119Z,94357.11
2019-02-12T03:38:33.762Z,94361.70
2019-02-12T03:41:05.413Z,94359.86
2019-02-12T03:43:37.068Z,94359.20
2019-02-12T03:46:08.694Z,94361.30
2019-02-12T03:48:40.264Z,94362.11
2019-02-12T03:51:11.619Z,94362.66
2019-02-12T03:53:43.147Z,94365.91
2019-02-12T03:56:14.474Z,94365.02
2019-02-12T03:58:46.162Z,94362.31
2019-02-12T04:01:17.632Z,94371.80
2019-02-12T04:03:49.293Z,94354.85
2019-02-12T04:06:20.980Z,94360.69
2019-02-12T04:08:52.525Z,94365.94
2019-02-12T04:11:24.473Z,94367.23
2019-02-12T04:13:55.846Z,94362.76
2019-02-12T04:16:27.391Z,94371.00
2019-02-12T04:18:59.951Z,94363.80
2019-02-12T04:21:31.446Z,94362.95
2019-02-12T04:24:02.764Z,94369.05
2019-02-12T04:26:34.452Z,94373.36
2019-02-12T04:29:05.832Z,94377.66
2019-02-12T04:31:37.599Z,94387.78
2019-02-12T04:34:09.371Z,94396.94
2019-02-12T04:36:41.045Z,94398.16
2019-02-12T04:39:12.439Z,94399.48
2019-02-12T04:41:44.154Z,94392.91
2019-02-12T04:44:15.586Z,94388.77
2019-02-12T04:46:46.944Z,94381.85
2019-02-12T04:49:18.282Z,94393.92
2019-02-12T04:51:50.672Z,94391.55
2019-02-12T04:54:22.328Z,94391.09
2019-02-12T04:56:53.874Z,94405.16
2019-02-12T04:59:25.626Z,94407.53
2019-02-12T05:01:57.472Z,94408.14
2019-02-12T05:04:29.203Z,94404.64
2019-02-12T05:07:00.687Z,94409.94
2019-02-12T05:09:32.980Z,94412.50
2019-02-12T05:12:06.528Z,94419.56
2019-02-12T05:14:38.309Z,94423.72
2019-02-12T05:17:09.869Z,94424.33
2019-02-12T05:19:41.651Z,94431.26
2019-02-12T05:22:12.921Z,94430.50
2019-02-12T05:24:44.402Z,94428.73
2019-02-12T05:27:15.983Z,94430.84
2019-02-12T05:29:47.514Z,94429.31
2019-02-12T05:32:19.171Z,94437.03
2019-02-12T05:34:50.632Z,94437.98
2019-02-12T05:37:22.284Z,94441.50
2019-02-12T05:39:53.893Z,94444.42
2019-02-12T05:42:25.712Z,94460.36
2019-02-12T05:44:57.354Z,94464.91
2019-02-12T05:47:28.783Z,94475.33
2019-02-12T05:50:00.534Z,94477.44
2019-02-12T05:52:32.238Z,94484.58
2019-02-12T05:55:04.025Z,94489.73
2019-02-12T05:57:35.621Z,94491.37
2019-02-12T06:00:09.327Z,94498.16
2019-02-12T06:02:40.904Z,94498.37
2019-02-12T06:05:13.822Z,94500.11
2019-02-12T06:07:45.415Z,94502.92
2019-02-12T06:10:17.081Z,94508.77
2019-02-12T06:12:48.991Z,94513.80
2019-02-12T06:15:20.943Z,94512.87
2019-02-12T06:17:52.670Z,94517.67
2019-02-12T06:20:24.344Z,94521.47
2019-02-12T06:23:03.362Z,94520.76
2019-02-12T06:25:29.436Z,94528.13
2019-02-12T06:28:01.002Z,94533.25
2019-02-12T06:30:32.774Z,94532.41
2019-02-12T06:33:07.503Z,94534.08
2019-02-12T06:35:37.675Z,94536.58
2019-02-12T06:38:09.257Z,94545.84
2019-02-12T06:40:40.843Z,94537.02
2019-02-12T06:43:12.503Z,94544.84
2019-02-12T06:45:44.417Z,94548.02
2019-02-12T06:48:16.269Z,94542.41
2019-02-12T06:50:47.942Z,94547.64
2019-02-12T06:53:19.825Z,94548.33
2019-02-12T06:55:51.767Z,94544.91
2019-02-12T06:58:23.384Z,94552.08
2019-02-12T07:00:54.812Z,94544.11
2019-02-12T07:03:31.869Z,94550.92
2019-02-12T07:06:13.575Z,94543.31
2019-02-12T07:09:10.142Z,94550.87
2019-02-12T07:12:14.083Z,94555.24
2019-02-12T07:14:56.424Z,94554.28
2019-02-12T07:18:07.451Z,94546.86
2019-02-12T07:21:06.930Z,94554.77
2019-02-12T07:24:17.716Z,94570.58
2019-02-12T07:27:27.333Z,94581.03
2019-02-12T07:30:46.509Z,94595.13
2019-02-12T07:33:59.729Z,94588.14
2019-02-12T07:36:43.123Z,94580.91
2019-02-12T07:39:36.840Z,94603.08
2019-02-12T07:42:18.887Z,94608.00
2019-02-12T07:45:36.104Z,94610.58
2019-02-12T07:49:00.345Z,94612.21
2019-02-12T07:52:33.556Z,94620.96
2019-02-12T07:55:26.289Z,94632.42
2019-02-12T07:58:52.083Z,94642.16
2019-02-12T08:01:42.455Z,94651.87
2019-02-12T08:05:00.503Z,94659.84
2019-02-12T08:08:15.402Z,94656.56
2019-02-12T08:11:26.058Z,94655.27
2019-02-12T08:14:32.614Z,94653.94
2019-02-12T08:17:32.327Z,94647.71
2019-02-12T08:20:52.523Z,94658.99
2019-02-12T08:24:07.810Z,94661.73
2019-02-12T08:27:11.197Z,94669.45
2019-02-12T08:30:17.364Z,94680.20
2019-02-12T08:33:37.463Z,94679.13
2019-02-12T08:36:35.797Z,94685.06
2019-02-12T08:39:22.858Z,94683.34
2019-02-12T08:42:32.289Z,94697.70
2019-02-12T08:45:44.066Z,94684.95
2019-02-12T08:48:57.613Z,94688.44
2019-02-12T08:52:03.123Z,94687.55
2019-02-12T08:54:45.145Z,94686.62
2019-02-12T08:57:39.715Z,94686.03
2019-02-12T09:00:44.739Z,94696.28
2019-02-12T09:04:26.924Z,94695.50
2019-02-12T09:07:23.301Z,94711.23
2019-02-12T09:10:33.771Z,94698.69
2019-02-12T09:13:14.736Z,94693.27
2019-02-12T09:16:32.276Z,94696.73
2019-02-12T09:19:33.720Z,94711.91
2019-02-12T09:22:40.650Z,94723.62
2019-02-12T09:25:58.390Z,94720.88
2019-02-12T09:28:50.216Z,94724.59
2019-02-12T09:32:13.076Z,94726.45
2019-02-12T09:35:02.792Z,94727.13
2019-02-12T09:37:57.241Z,94740.34
2019-02-12T09:41:05.115Z,94725.15
2019-02-12T09:44:32.048Z,94725.24
2019-02-12T09:47:53.213Z,94721.12
2019-02-12T09:51:01.755Z,94719.23
2019-02-12T09:54:08.652Z,94709.52
2019-02-12T09:57:07.762Z,94716.06
2019-02-12T10:00:22.223Z,94712.81
2019-02-12T10:03:36.186Z,94723.86
2019-02-12T10:06:48.268Z,94722.50
2019-02-12T10:10:08.228Z,94726.91
2019-02-12T10:13:17.446Z,94733.23
2019-02-12T10:16:23.857Z,94754.92
2019-02-12T10:19:36.121Z,94757.34
2019-02-12T10:23:12.601Z,94760.64
2019-02-12T10:26:03.955Z,94762.67
2019-02-12T10:29:20.218Z,94764.36
2019-02-12T10:31:49.935Z,94761.76
2019-02-12T10:34:21.319Z,94764.53
2019-02-12T10:36:53.254Z,94760.09
2019-02-12T10:39:25.135Z,94757.23
2019-02-12T10:41:56.779Z,94759.59
2019-02-12T10:44:28.253Z,94760.83
2019-02-12T10:46:59.976Z,94764.29
2019-02-12T10:49:31.283Z,94782.14
2019-02-12T10:52:02.720Z,94780.92
2019-02-12T10:54:35.477Z,94775.00
2019-02-12T10:57:06.990Z,94793.33
2019-02-12T10:59:38.468Z,94797.63
2019-02-12T11:02:10.035Z,94789.88
2019-02-12T11:04:41.700Z,94799.48
2019-02-12T11:07:13.456Z,94810.80
2019-02-12T11:09:45.051Z,94818.31
2019-02-12T11:12:16.672Z,94808.78
2019-02-12T11:14:48.160Z,94810.81
2019-02-12T11:17:19.770Z,94809.84
2019-02-12T11:19:51.427Z,94810.70
2019-02-12T11:22:22.990Z,94806.10
2019-02-12T11:24:54.600Z,94806.34
2019-02-12T11:27:26.040Z,94816.41
2019-02-12T11:29:57.514Z,94809.16
2019-02-12T11:32:30.265Z,94808.45
2019-02-12T11:35:01.515Z,94822.94
2019-02-12T11:37:33.084Z,94824.06
2019-02-12T11:40:04.880Z,94820.83
2019-02-12T11:42:36.693Z,94818.72
2019-02-12T11:45:09.326Z,94827.53
2019-02-12T11:47:40.961Z,94828.17
2019-02-12T11:50:12.435Z,94824.16
2019-02-12T11:52:44.024Z,94823.32
2019-02-12T11:55:15.513Z,94819.77
2019-02-12T11:57:47.017Z,94836.94
2019-02-12T12:00:22.561Z,94841.52
2019-02-12T12:02:54.176Z,94845.27
2019-02-12T12:05:25.910Z,94838.45
2019-02-12T12:07:57.585Z,94856.16
2019-02-12T12:10:30.213Z,94854.56
2019-02-12T12:13:01.855Z,94859.31
2019-02-12T12:15:33.465Z,94845.34
2019-02-12T12:18:05.101Z,94855.81
2019-02-12T12:20:36.611Z,94857.93
2019-02-12T12:23:08.263Z,94863.19
2019-02-12T12:25:39.832Z,94870.66
2019-02-12T12:28:11.798Z,94879.45
2019-02-12T12:30:43.124Z,94883.98
2019-02-12T12:33:14.638Z,94891.31
2019-02-12T12:35:46.114Z,94896.16
2019-02-12T12:38:17.630Z,94894.16
2019-02-12T12:40:49.270Z,94897.25
2019-02-12T12:43:20.659Z,94899.16
2019-02-12T12:45:52.299Z,94914.70
2019-02-12T12:48:23.634Z,94890.28
2019-02-12T12:50:55.079Z,94914.05
2019-02-12T12:53:26.867Z,94917.55
2019-02-12T12:55:58.586Z,94931.66
2019-02-12T12:58:30.027Z,94929.91
2019-02-12T13:01:01.631Z,94926.84
2019-02-12T13:03:33.526Z,94933.98
2019-02-12T13:06:05.241Z,94928.33
2019-02-12T13:08:36.894Z,94934.80
2019-02-12T13:11:08.567Z,94941.26
2019-02-12T13:13:39.972Z,94951.59
2019-02-12T13:16:11.753Z,94945.02
2019-02-12T13:18:43.523Z,94955.25
2019-02-12T13:21:15.385Z,94964.38
2019-02-12T13:23:47.129Z,94960.88
2019-02-12T13:26:18.600Z,94970.26
2019-02-12T13:28:49.952Z,94972.02
2019-02-12T13:31:21.669Z,94964.63
2019-02-12T13:33:53.473Z,94974.33
2019-02-12T13:36:24.938Z,94988.88
2019-02-12T13:38:56.359Z,94987.84
2019-02-12T13:41:27.724Z,94981.39
2019-02-12T13:43:59.269Z,94983.38
2019-02-12T13:46:30.483Z,94998.92
2019-02-12T13:49:01.754Z,94995.89
2019-02-12T13:51:33.503Z,95011.65
2019-02-12T13:54:05.101Z,95001.27
2019-02-12T13:56:36.312Z,95013.59
2019-02-12T13:59:07.841Z,95018.55
2019-02-12T14:01:39.223Z,95031.72
2019-02-12T14:04:10.587Z,95035.61
2019-02-12T14:06:41.859Z,95036.38
2019-02-12T14:09:13.759Z,95037.02
2019-02-12T14:11:45.540Z,95039.04
2019-02-12T14:14:17.300Z,95046.09
2019-02-12T14:16:48.746Z,95053.68
2019-02-12T14:19:20.435Z,95057.00
2019-02-12T14:21:51.974Z,95056.50
2019-02-12T14:24:23.622Z,95057.02
2019-02-12T14:26:55.243Z,95064.97
2019-02-12T14:29:26.579Z,95072.20
2019-02-12T14:31:57.867Z,95073.69
2019-02-12T14:34:29.422Z,95071.59
2019-02-12T14:37:00.967Z,95075.19
2019-02-12T14:39:33.551Z,95082.22
2019-02-12T14:42:05.139Z,95094.24
2019-02-12T14:44:36.818Z,95100.25
2019-02-12T14:47:08.462Z,95097.99
2019-02-12T14:49:40.315Z,95104.27
2019-02-12T14:52:12.026Z,95099.24
2019-02-12T14:54:43.775Z,95106.34
2019-02-12T14:57:15.696Z,95105.80
2019-02-12T14:59:47.437Z,95110.43
2019-02-12T15:02:19.312Z,95112.61
2019-02-12T15:04:50.981Z,95115.70
2019-02-12T15:07:22.584Z,95118.98
2019-02-12T15:09:54.122Z,95119.13
2019-02-12T15:12:26.619Z,95131.88
2019-02-12T15:14:58.129Z,95129.19
2019-02-12T15:17:30.008Z,95134.64
2019-02-12T15:20:01.954Z,95132.89
2019-02-12T15:22:33.363Z,95137.58
2019-02-12T15:25:05.208Z,95137.94
2019-02-12T15:27:36.794Z,95132.27
2019-02-12T15:30:10.479Z,95130.81
2019-02-12T15:32:42.326Z,95138.53
2019-02-12T15:35:14.213Z,95139.16
2019-02-12T15:37:45.871Z,95135.38
2019-02-12T15:40:17.724Z,95144.14
2019-02-12T15:42:49.151Z,95139.19
2019-02-12T15:45:20.995Z,95145.97
2019-02-12T15:47:52.683Z,95149.41
2019-02-12T15:50:25.318Z,95158.17
2019-02-12T15:52:56.961Z,95155.66
2019-02-12T15:55:28.514Z,95161.10
2019-02-12T15:58:00.290Z,95174.07
2019-02-12T16:00:31.913Z,95180.76
2019-02-12T16:03:03.431Z,95187.44
2019-02-12T16:05:34.899Z,95192.58
2019-02-12T16:08:07.333Z,95197.22
2019-02-12T16:10:41.807Z,95204.58
2019-02-12T16:13:13.670Z,95216.19
2019-02-12T16:15:47.079Z,95218.73
2019-02-12T16:18:18.461Z,95226.25
2019-02-12T16:20:49.951Z,95232.73
2019-02-12T16:23:21.542Z,95239.37
2019-02-12T16:25:59.386Z,95236.54
2019-02-12T16:28:26.326Z,95241.94
2019-02-12T16:30:58.360Z,95246.17
2019-02-12T16:33:29.749Z,95249.73
2019-02-12T16:36:01.208Z,95256.36
2019-02-12T16:38:32.864Z,95261.58
2019-02-12T16:41:04.345Z,95269.66
2019-02-12T16:43:35.541Z,95270.23
2019-02-12T16:46:10.476Z,95268.02
2019-02-12T16:48:42.293Z,95293.39
2019-02-12T16:51:14.050Z,95296.34
2019-02-12T16:53:45.693Z,95297.80
2019-02-12T16:56:17.238Z,95309.73
2019-02-12T16:58:48.943Z,95306.14
2019-02-12T17:01:20.233Z,95315.71
2019-02-12T17:03:51.580Z,95323.16
2019-02-12T17:06:23.958Z,95326.91
2019-02-12T17:08:55.488Z,95324.16
2019-02-12T17:11:26.994Z,95327.46
2019-02-12T17:13:59.636Z,95325.88
2019-02-12T17:16:32.630Z,95334.63
2019-02-12T17:19:04.407Z,95339.66
2019-02-12T17:21:36.367Z,95339.66
2019-02-12T17:24:08.098Z,95342.22
2019-02-12T17:26:40.109Z,95346.73
2019-02-12T17:29:11.830Z,95343.61
2019-02-12T17:31:43.600Z,95344.80
2019-02-12T17:34:15.280Z,95354.73
2019-02-12T17:36:47.343Z,95350.14
2019-02-12T17:39:18.784Z,95349.95
2019-02-12T17:41:50.077Z,95357.22
2019-02-12T17:44:22.772Z,95366.03
2019-02-12T17:46:54.142Z,95360.33
2019-02-12T17:49:25.876Z,95358.31
2019-02-12T17:51:57.533Z,95362.89
2019-02-12T17:54:29.153Z,95362.44
2019-02-12T17:57:00.770Z,95362.70
2019-02-12T17:59:32.437Z,95360.86
2019-02-12T18:02:04.152Z,95372.98
2019-02-12T18:04:36.040Z,95380.96
2019-02-12T18:07:07.852Z,95373.25
2019-02-12T18:09:39.222Z,95381.62
2019-02-12T18:12:10.696Z,95381.91
2019-02-12T18:14:42.170Z,95379.77
2019-02-12T18:17:13.878Z,95382.27
2019-02-12T18:19:47.121Z,95395.30
2019-02-12T18:22:18.720Z,95385.48
2019-02-12T18:24:50.312Z,95382.61
2019-02-12T18:27:21.823Z,95387.02
2019-02-12T18:29:53.164Z,95385.64
2019-02-12T18:32:24.806Z,95392.36
2019-02-12T18:34:56.290Z,95385.84
2019-02-12T18:37:27.583Z,95392.69
2019-02-12T18:39:59.313Z,95393.05
2019-02-12T18:42:30.953Z,95388.42
2019-02-12T18:45:02.498Z,95391.59
2019-02-12T18:47:34.250Z,95388.09
2019-02-12T18:50:06.387Z,95392.01
2019-02-12T18:52:37.804Z,95396.42
2019-02-12T18:55:10.587Z,95405.94
2019-02-12T18:57:42.787Z,95411.48
2019-02-12T19:00:16.186Z,95421.79
2019-02-12T19:02:48.170Z,95430.73
2019-02-12T19:05:20.247Z,95437.41
2019-02-12T19:07:52.043Z,95440.34
2019-02-12T19:10:25.048Z,95438.30
2019-02-12T19:12:58.172Z,95436.63
2019-02-12T19:15:30.488Z,95433.59
2019-02-12T19:18:09.472Z,95434.33
2019-02-12T19:20:42.723Z,95440.61
2019-02-12T19:23:14.414Z,95446.94
2019-02-12T19:25:46.189Z,95455.81
2019-02-12T19:28:17.861Z,95454.46
2019-02-12T19:30:49.348Z,95459.16
2019-02-12T19:33:20.623Z,95456.27
2019-02-12T19:35:52.144Z,95456.57
2019-02-12T19:38:23.797Z,95456.73
2019-02-12T19:40:56.897Z,95461.74
2019-02-12T19:43:29.570Z,95463.27
2019-02-12T19:46:01.050Z,95466.05
2019-02-12T19:48:32.434Z,95465.72
2019-02-12T19:51:03.923Z,95469.56
2019-02-12T19:53:35.348Z,95475.28
2019-02-12T19:56:06.725Z,95482.83
2019-02-12T19:58:39.002Z,95479.25
2019-02-12T20:01:10.953Z,95489.83
2019-02-12T20:03:43.198Z,95496.86
2019-02-12T20:06:18.418Z,95500.24
2019-02-12T20:08:51.278Z,95504.86
2019-02-12T20:11:23.355Z,95503.24
2019-02-12T20:13:54.631Z,95505.96
2019-02-12T20:16:26.201Z,95511.27
2019-02-12T20:18:57.439Z,95514.20
2019-02-12T20:21:30.252Z,95511.80
2019-02-12T20:24:03.227Z,95519.03
2019-02-12T20:26:36.018Z,95514.58
2019-02-12T20:29:07.623Z,95519.67
2019-02-12T20:31:40.529Z,95522.61
2019-02-12T20:34:12.102Z,95528.67
2019-02-12T20:36:45.451Z,95526.78
2019-02-12T20:39:17.006Z,95525.69
2019-02-12T20:41:48.569Z,95526.73
2019-02-12T20:44:19.901Z,95537.88
2019-02-12T20:46:51.169Z,95544.70
2019-02-12T20:49:25.174Z,95540.83
2019-02-12T20:51:56.549Z,95540.06
2019-02-12T20:54:27.896Z,95537.66
2019-02-12T20:57:01.772Z,95538.09
2019-02-12T20:59:33.255Z,95531.72
2019-02-12T21:02:04.754Z,95530.22
2019-02-12T21:04:36.259Z,95531.91
2019-02-12T21:07:09.324Z,95535.26
2019-02-12T21:09:41.037Z,95537.31
2019-02-12T21:12:12.891Z,95542.20
2019-02-12T21:14:44.668Z,95549.81
2019-02-12T21:17:17.029Z,95562.30
2019-02-12T21:19:48.626Z,95552.63
2019-02-12T21:22:20.209Z,95553.49
2019-02-12T21:24:51.736Z,95554.32
2019-02-12T21:27:23.827Z,95567.63
2019-02-12T21:29:55.174Z,95565.00
2019-02-12T21:32:26.869Z,95571.94
2019-02-12T21:34:58.331Z,95571.56
2019-02-12T21:37:29.692Z,95571.42
2019-02-12T21:40:00.908Z,95574.50
2019-02-12T21:42:32.334Z,95577.61
2019-02-12T21:45:05.623Z,95581.14
2019-02-12T21:47:37.186Z,95578.30
2019-02-12T21:50:09.370Z,95586.45
2019-02-12T21:52:40.758Z,95585.03
2019-02-12T21:55:15.272Z,95593.05
2019-02-12T21:57:46.689Z,95590.71
2019-02-12T22:00:18.183Z,95594.42
2019-02-12T22:02:49.801Z,95596.08
2019-02-12T22:05:21.257Z,95597.30
2019-02-12T22:07:52.965Z,95601.70
2019-02-12T22:10:24.625Z,95608.70
2019-02-12T22:12:56.008Z,95607.51
2019-02-12T22:15:27.613Z,95611.36
2019-02-12T22:17:59.340Z,95613.61
2019-02-12T22:20:30.669Z,95607.80
2019-02-12T22:23:02.266Z,95609.68
2019-02-12T22:25:34.860Z,95607.06
2019-02-12T22:28:06.451Z,95598.95
2019-02-12T22:30:37.985Z,95597.63
2019-02-12T22:33:09.368Z,95604.32
2019-02-12T22:35:40.805Z,95601.16
2019-02-12T22:38:12.254Z,95599.96
2019-02-12T22:40:43.713Z,95598.88
2019-02-12T22:43:15.013Z,95606.28
2019-02-12T22:45:46.569Z,95618.06
2019-02-12T22:48:18.105Z,95621.52
2019-02-12T22:50:49.794Z,95625.30
2019-02-12T22:53:21.324Z,95620.63
2019-02-12T22:55:52.961Z,95619.63
2019-02-12T22:58:24.430Z,95636.63
2019-02-12T23:01:03.738Z,95628.02
2019-02-12T23:03:36.745Z,95640.84
2019-02-12T23:06:08.292Z,95641.89
2019-02-12T23:08:39.735Z,95637.30
2019-02-12T23:11:11.304Z,95646.57
2019-02-12T23:13:42.926Z,95652.39
2019-02-12T23:16:14.469Z,95650.81
2019-02-12T23:18:45.778Z,95656.83
2019-02-12T23:21:17.362Z,95661.66
2019-02-12T23:23:48.732Z,95657.22
2019-02-12T23:26:20.344Z,95657.68
2019-02-12T23:28:51.623Z,95664.40
2019-02-12T23:31:23.404Z,95661.98
2019-02-12T23:33:54.632Z,95667.31
2019-02-12T23:36:25.994Z,95665.73
2019-02-12T23:38:57.352Z,95677.80
2019-02-12T23:41:28.615Z,95683.25
2019-02-12T23:43:59.870Z,95690.84
2019-02-12T23:46:31.154Z,95690.02
2019-02-12T23:49:02.473Z,95692.58
2019-02-12T23:51:33.974Z,95699.78
2019-02-12T23:54:05.307Z,95697.55
2019-02-12T23:56:36.680Z,95694.98
2019-02-12T23:59:09.002Z,95699.20
